This is the latest recevied weather packets stored in our database for station/object M7PDA-1. If no packets are shown the sender has not sent any weather packets the latest 10 day(s).
| Time | Temp. | Humidity | Pressure | Rain* | Wind** | Luminosity | Snow |
|---|---|---|---|---|---|---|---|
| 1777655087 | 13.89° C | 74% | 1020.7 hPa | - | - | - | - |
| 1777654186 | 13.89° C | 72% | 1020.7 hPa | - | - | - | - |
| 1777653286 | 14.44° C | 71% | 1020.6 hPa | - | - | - | - |
| 1777652385 | 14.44° C | 71% | 1020.7 hPa | - | - | - | - |
| 1777651483 | 14.44° C | 72% | 1020.7 hPa | - | - | - | - |
| 1777650582 | 15° C | 69% | 1020.7 hPa | - | - | - | - |
| 1777649682 | 15° C | 68% | 1020.8 hPa | - | - | - | - |
| 1777648781 | 15.56° C | 66% | 1020.8 hPa | - | - | - | - |
| 1777647880 | 16.11° C | 65% | 1020.9 hPa | - | - | - | - |
| 1777646979 | 16.67° C | 62% | 1020.9 hPa | - | - | - | - |
| 1777646078 | 16.67° C | 62% | 1021 hPa | - | - | - | - |
| 1777645178 | 17.22° C | 58% | 1020.9 hPa | - | - | - | - |
| 1777644277 | 17.78° C | 57% | 1020.9 hPa | - | - | - | - |
| 1777643376 | 18.33° C | 55% | 1020.8 hPa | - | - | - | - |
| 1777642475 | 18.89° C | 53% | 1020.9 hPa | - | - | - | - |
| 1777641574 | 18.89° C | 49% | 1020.8 hPa | - | - | - | - |
| 1777640674 | 19.44° C | 48% | 1020.9 hPa | - | - | - | - |
| 1777639773 | 18.89° C | 48% | 1021 hPa | - | - | - | - |
| 1777638872 | 21.11° C | 42% | 1020.9 hPa | - | - | - | - |
| 1777637971 | 21.67° C | 42% | 1020.8 hPa | - | - | - | - |
| 1777637071 | 21.67° C | 42% | 1020.8 hPa | - | - | - | - |
| 1777636170 | 20.56° C | 43% | 1021 hPa | - | - | - | - |
| 1777635269 | 21.11° C | 42% | 1020.9 hPa | - | - | - | - |
| 1777634368 | 22.22° C | 39% | 1020.7 hPa | - | - | - | - |
| 1777633468 | 21.67° C | 40% | 1020.7 hPa | - | - | - | - |
* Rain since midnight (hover to see other rain measurements)
** Current wind speed in m/s (hover to see current wind gust speed)